createdAt,value
2018-10-21T00:01:18.462Z,30.30
2018-10-21T00:03:47.413Z,31.87
2018-10-21T00:06:16.333Z,28.50
2018-10-21T00:08:47.626Z,30.97
2018-10-21T00:11:16.589Z,27.93
2018-10-21T00:13:45.522Z,28.10
2018-10-21T00:16:14.454Z,27.67
2018-10-21T00:18:43.414Z,28.60
2018-10-21T00:21:12.383Z,31.67
2018-10-21T00:23:41.295Z,30.40
2018-10-21T00:26:10.226Z,24.50
2018-10-21T00:28:41.650Z,32.27
2018-10-21T00:31:12.260Z,29.40
2018-10-21T00:33:41.467Z,28.03
2018-10-21T00:36:10.377Z,30.17
2018-10-21T00:38:39.330Z,31.00
2018-10-21T00:41:08.253Z,33.10
2018-10-21T00:43:37.169Z,27.00
2018-10-21T00:46:07.330Z,29.37
2018-10-21T00:48:36.413Z,31.35
2018-10-21T00:51:05.585Z,36.57
2018-10-21T00:53:34.493Z,34.70
2018-10-21T00:56:03.435Z,27.62
2018-10-21T00:58:35.769Z,34.17
2018-10-21T01:01:05.034Z,32.00
2018-10-21T01:03:34.110Z,32.45
2018-10-21T01:06:05.953Z,32.17
2018-10-21T01:08:34.882Z,33.13
2018-10-21T01:11:03.898Z,25.48
2018-10-21T01:13:32.885Z,33.60
2018-10-21T01:16:01.797Z,32.97
2018-10-21T01:18:30.740Z,31.73
2018-10-21T01:20:59.677Z,36.58
2018-10-21T01:23:28.600Z,38.43
2018-10-21T01:25:57.521Z,34.20
2018-10-21T01:28:26.443Z,33.63
2018-10-21T01:30:55.372Z,32.20
2018-10-21T01:33:24.278Z,35.88
2018-10-21T01:35:53.218Z,28.73
2018-10-21T01:38:22.148Z,34.23
2018-10-21T01:40:54.409Z,31.68
2018-10-21T01:43:25.521Z,39.83
2018-10-21T01:45:54.484Z,33.05
2018-10-21T01:48:24.520Z,35.73
2018-10-21T01:50:53.541Z,37.73
2018-10-21T01:53:23.025Z,38.70
2018-10-21T01:55:51.988Z,38.00
2018-10-21T01:58:20.893Z,38.95
2018-10-21T02:00:49.834Z,38.20
2018-10-21T02:03:18.810Z,48.25
2018-10-21T02:05:48.293Z,41.92
2018-10-21T02:08:17.226Z,42.23
2018-10-21T02:10:46.149Z,45.33
2018-10-21T02:13:15.102Z,49.07
2018-10-21T02:15:44.034Z,45.30
2018-10-21T02:18:12.963Z,40.65
2018-10-21T02:20:41.940Z,44.95
2018-10-21T02:23:10.858Z,41.50
2018-10-21T02:25:39.805Z,45.77
2018-10-21T02:28:09.103Z,43.25
2018-10-21T02:30:38.039Z,40.27
2018-10-21T02:33:06.982Z,40.47
2018-10-21T02:35:35.874Z,41.18
2018-10-21T02:38:05.131Z,38.65
2018-10-21T02:41:43.854Z,40.08
2018-10-21T02:44:18.011Z,45.57
2018-10-21T02:46:47.690Z,49.40
2018-10-21T02:49:17.253Z,40.67
2018-10-21T02:51:51.447Z,48.23
2018-10-21T02:54:24.626Z,44.17
2018-10-21T02:56:53.712Z,44.77
2018-10-21T02:59:23.050Z,49.30
2018-10-21T03:01:51.990Z,40.83
2018-10-21T03:04:21.071Z,41.45
2018-10-21T03:06:50.291Z,43.80
2018-10-21T03:09:19.303Z,47.27
2018-10-21T03:11:48.170Z,46.53
2018-10-21T03:14:17.074Z,45.73
2018-10-21T03:16:46.025Z,38.45
2018-10-21T03:19:14.959Z,43.87
2018-10-21T03:21:43.909Z,49.05
2018-10-21T03:24:12.824Z,48.83
2018-10-21T03:26:41.762Z,46.37
2018-10-21T03:29:10.766Z,46.70
2018-10-21T03:31:39.702Z,50.12
2018-10-21T03:34:08.743Z,46.00
2018-10-21T03:36:38.280Z,49.27
2018-10-21T03:39:08.650Z,46.50
2018-10-21T03:41:37.607Z,46.28
2018-10-21T03:44:06.661Z,47.53
2018-10-21T03:46:35.572Z,45.23
2018-10-21T03:49:04.493Z,47.10
2018-10-21T03:51:33.422Z,47.95
2018-10-21T03:54:02.361Z,44.40
2018-10-21T03:56:31.273Z,47.95
2018-10-21T03:59:00.246Z,43.73
2018-10-21T04:01:29.149Z,48.87
2018-10-21T04:03:58.135Z,49.93
2018-10-21T04:06:27.002Z,54.17
2018-10-21T04:08:55.917Z,48.23
2018-10-21T04:11:24.837Z,46.70
2018-10-21T04:13:53.786Z,50.75
2018-10-21T04:16:22.714Z,50.52
2018-10-21T04:18:51.676Z,54.03
2018-10-21T04:21:21.258Z,51.48
2018-10-21T04:23:50.181Z,50.40
2018-10-21T04:26:19.133Z,54.95
2018-10-21T04:28:48.083Z,52.48
2018-10-21T04:31:17.006Z,54.33
2018-10-21T04:33:46.569Z,51.60
2018-10-21T04:36:18.194Z,53.70
2018-10-21T04:40:06.045Z,50.92
2018-10-21T04:42:34.921Z,50.83
2018-10-21T04:45:04.093Z,49.73
2018-10-21T04:47:33.024Z,55.25
2018-10-21T04:50:01.963Z,53.03
2018-10-21T04:52:31.614Z,54.70
2018-10-21T04:55:05.654Z,49.03
2018-10-21T04:57:35.065Z,50.38
2018-10-21T05:00:04.089Z,51.07
2018-10-21T05:02:33.005Z,45.54
2018-10-21T05:05:01.949Z,47.75
2018-10-21T05:07:30.917Z,52.98
2018-10-21T05:09:59.840Z,55.70
2018-10-21T05:12:28.733Z,50.70
2018-10-21T05:14:57.648Z,57.10
2018-10-21T05:17:26.594Z,55.05
2018-10-21T05:19:55.517Z,59.40
2018-10-21T05:22:24.422Z,51.00
2018-10-21T05:24:53.384Z,59.65
2018-10-21T05:27:22.313Z,63.30
2018-10-21T05:29:51.258Z,62.60
2018-10-21T05:32:20.174Z,54.47
2018-10-21T05:34:49.129Z,57.30
2018-10-21T05:37:18.056Z,57.38
2018-10-21T05:39:46.998Z,60.63
2018-10-21T05:42:15.934Z,59.80
2018-10-21T05:44:44.866Z,63.70
2018-10-21T05:47:13.819Z,54.67
2018-10-21T05:49:42.704Z,57.88
2018-10-21T05:52:11.737Z,61.03
2018-10-21T05:54:42.141Z,59.27
2018-10-21T05:57:11.065Z,60.80
2018-10-21T05:59:39.973Z,61.13
2018-10-21T06:02:08.916Z,56.57
2018-10-21T06:04:37.833Z,57.20
2018-10-21T06:07:06.767Z,64.15
2018-10-21T06:09:35.677Z,54.15
2018-10-21T06:12:04.820Z,66.13
2018-10-21T06:14:33.734Z,62.27
2018-10-21T06:17:20.598Z,57.83
2018-10-21T06:19:55.854Z,58.15
2018-10-21T06:22:24.769Z,62.67
2018-10-21T06:24:53.714Z,57.05
2018-10-21T06:27:22.629Z,64.37
2018-10-21T06:29:51.557Z,64.55
2018-10-21T06:32:20.495Z,60.05
2018-10-21T06:34:50.281Z,66.12
2018-10-21T06:37:19.229Z,62.40
2018-10-21T06:39:48.141Z,64.97
2018-10-21T06:42:17.090Z,62.55
2018-10-21T06:44:46.001Z,61.48
2018-10-21T06:47:14.954Z,67.70
2018-10-21T06:49:43.881Z,64.40
2018-10-21T06:52:13.029Z,63.73
2018-10-21T06:54:42.018Z,68.07
2018-10-21T06:57:11.114Z,70.62
2018-10-21T06:59:39.893Z,73.10
2018-10-21T07:02:08.835Z,79.03
2018-10-21T07:04:37.816Z,66.00
2018-10-21T07:07:06.692Z,72.43
2018-10-21T07:09:35.606Z,69.70
2018-10-21T07:12:04.806Z,67.40
2018-10-21T07:14:33.709Z,67.90
2018-10-21T07:17:02.633Z,67.00
2018-10-21T07:19:31.585Z,65.63
2018-10-21T07:22:00.884Z,71.10
2018-10-21T07:24:29.806Z,70.30
2018-10-21T07:26:58.733Z,71.67
2018-10-21T07:29:27.688Z,73.05
2018-10-21T07:31:56.635Z,75.53
2018-10-21T07:34:25.554Z,67.90
2018-10-21T07:36:54.521Z,71.92
2018-10-21T07:39:23.430Z,72.50
2018-10-21T07:41:52.409Z,76.75
2018-10-21T07:44:21.349Z,72.50
2018-10-21T07:46:50.361Z,75.43
2018-10-21T07:49:19.298Z,76.02
2018-10-21T07:51:48.246Z,83.90
2018-10-21T07:54:17.162Z,65.52
2018-10-21T07:56:46.116Z,73.70
2018-10-21T07:59:15.279Z,66.80
2018-10-21T08:01:44.241Z,74.23
2018-10-21T08:04:13.247Z,75.03
2018-10-21T08:06:53.478Z,68.97
2018-10-21T08:09:22.405Z,71.63
2018-10-21T08:11:51.386Z,74.15
2018-10-21T08:14:20.313Z,67.58
2018-10-21T08:16:49.387Z,69.03
2018-10-21T08:19:18.369Z,62.60
2018-10-21T08:21:47.307Z,73.33
2018-10-21T08:24:16.228Z,67.55
2018-10-21T08:26:45.147Z,63.73
2018-10-21T08:29:14.102Z,64.60
2018-10-21T08:31:43.006Z,59.88
2018-10-21T08:34:11.969Z,62.58
2018-10-21T08:36:41.140Z,60.15
2018-10-21T08:39:10.078Z,56.00
2018-10-21T08:41:38.993Z,52.47
2018-10-21T08:44:07.950Z,57.78
2018-10-21T08:46:36.892Z,62.78
2018-10-21T08:49:05.850Z,57.43
2018-10-21T08:51:34.737Z,58.90
2018-10-21T08:54:03.682Z,59.45
2018-10-21T08:56:32.613Z,56.30
2018-10-21T08:59:02.294Z,56.25
2018-10-21T09:01:31.212Z,58.45
2018-10-21T09:04:00.912Z,56.28
2018-10-21T09:06:29.849Z,52.60
2018-10-21T09:08:58.750Z,53.67
2018-10-21T09:11:27.677Z,56.10
2018-10-21T09:13:56.614Z,57.95
2018-10-21T09:16:25.633Z,55.40
2018-10-21T09:18:54.506Z,57.15
2018-10-21T09:21:23.457Z,53.13
2018-10-21T09:23:52.389Z,53.98
2018-10-21T09:26:21.314Z,49.90
2018-10-21T09:28:50.242Z,52.13
2018-10-21T09:31:19.171Z,46.83
2018-10-21T09:33:48.085Z,48.15
2018-10-21T09:36:17.045Z,49.00
2018-10-21T09:38:45.970Z,49.07
2018-10-21T09:41:14.918Z,48.30
2018-10-21T09:43:43.894Z,50.15
2018-10-21T09:46:12.908Z,43.60
2018-10-21T09:48:41.775Z,47.10
2018-10-21T09:51:11.724Z,44.20
2018-10-21T09:53:40.665Z,47.60
2018-10-21T09:56:09.611Z,42.10
2018-10-21T09:58:38.620Z,46.90
2018-10-21T10:02:14.626Z,49.07
2018-10-21T10:04:43.542Z,47.08
2018-10-21T10:07:12.555Z,47.93
2018-10-21T10:09:41.445Z,46.13
2018-10-21T10:12:10.393Z,41.85
2018-10-21T10:14:39.343Z,52.87
2018-10-21T10:17:08.277Z,46.47
2018-10-21T10:19:37.242Z,49.27
2018-10-21T10:22:06.305Z,44.50
2018-10-21T10:24:35.161Z,45.27
2018-10-21T10:27:04.131Z,42.27
2018-10-21T10:29:33.065Z,44.33
2018-10-21T10:32:02.029Z,44.75
2018-10-21T10:34:30.980Z,46.48
2018-10-21T10:36:59.971Z,49.18
2018-10-21T10:39:28.854Z,44.98
2018-10-21T10:41:57.925Z,47.63
2018-10-21T10:44:26.729Z,47.35
2018-10-21T10:46:55.684Z,41.20
2018-10-21T10:49:24.597Z,41.23
2018-10-21T10:51:53.563Z,41.40
2018-10-21T10:54:22.477Z,43.73
2018-10-21T10:56:51.432Z,46.33
2018-10-21T10:59:20.357Z,44.00
2018-10-21T11:01:49.298Z,45.50
2018-10-21T11:04:18.309Z,50.43
2018-10-21T11:06:48.256Z,37.08
2018-10-21T11:09:17.021Z,42.30
2018-10-21T11:11:45.975Z,42.43
2018-10-21T11:14:14.906Z,41.40
2018-10-21T11:16:43.829Z,39.37
2018-10-21T11:19:12.801Z,40.65
2018-10-21T11:21:41.749Z,39.43
2018-10-21T11:24:10.753Z,34.88
2018-10-21T11:26:39.674Z,34.83
2018-10-21T11:29:08.613Z,33.37
2018-10-21T11:31:37.533Z,31.90
2018-10-21T11:34:06.550Z,31.80
2018-10-21T11:36:35.448Z,38.42
2018-10-21T11:39:05.058Z,28.12
2018-10-21T11:41:33.973Z,29.37
2018-10-21T11:44:02.979Z,32.97
2018-10-21T11:46:32.336Z,24.70
2018-10-21T11:49:01.249Z,25.82
2018-10-21T11:51:30.322Z,19.43
2018-10-21T11:53:59.313Z,29.87
2018-10-21T11:56:28.258Z,31.68
2018-10-21T11:58:57.229Z,12.07
2018-10-21T12:01:26.148Z,14.38
2018-10-21T12:03:55.208Z,11.50
2018-10-21T12:06:24.289Z,16.95
2018-10-21T12:08:53.222Z,16.25
2018-10-21T12:11:22.125Z,15.55
2018-10-21T12:13:51.081Z,13.72
2018-10-21T12:16:20.107Z,15.03
2018-10-21T12:18:49.076Z,12.07
2018-10-21T12:21:18.082Z,6.77
2018-10-21T12:23:47.006Z,11.03
2018-10-21T12:26:15.913Z,6.10
2018-10-21T12:28:44.834Z,8.27
2018-10-21T12:31:13.839Z,5.63
2018-10-21T12:33:44.099Z,7.60
2018-10-21T12:36:14.642Z,8.07
2018-10-21T12:38:43.589Z,12.95
2018-10-21T12:41:12.900Z,12.87
2018-10-21T12:43:42.413Z,16.25
2018-10-21T12:46:11.516Z,17.40
2018-10-21T12:48:40.349Z,20.83
2018-10-21T12:51:09.293Z,18.47
2018-10-21T12:53:38.286Z,18.07
2018-10-21T12:56:08.842Z,24.20
2018-10-21T12:58:38.466Z,23.50
2018-10-21T13:01:07.776Z,18.87
2018-10-21T13:03:36.767Z,28.20
2018-10-21T13:06:05.792Z,22.40
2018-10-21T13:08:35.692Z,28.32
2018-10-21T13:11:04.629Z,24.35
2018-10-21T13:13:33.565Z,23.80
2018-10-21T13:16:02.841Z,20.80
2018-10-21T13:18:31.753Z,20.50
2018-10-21T13:21:00.714Z,12.17
2018-10-21T13:23:29.814Z,13.73
2018-10-21T13:25:58.753Z,11.53
2018-10-21T13:28:27.802Z,14.97
2018-10-21T13:30:56.683Z,13.03
2018-10-21T13:33:25.576Z,14.80
2018-10-21T13:35:54.532Z,16.17
2018-10-21T13:38:23.821Z,14.50
2018-10-21T13:40:53.855Z,16.25
2018-10-21T13:43:22.970Z,13.47
2018-10-21T13:45:52.076Z,14.43
2018-10-21T13:48:20.893Z,20.25
2018-10-21T13:50:50.041Z,10.82
2018-10-21T13:53:18.999Z,21.70
2018-10-21T13:55:47.901Z,22.37
2018-10-21T13:58:17.102Z,18.52
2018-10-21T14:00:46.127Z,16.93
2018-10-21T14:03:14.901Z,15.43
2018-10-21T14:05:43.890Z,17.92
2018-10-21T14:08:12.854Z,18.10
2018-10-21T14:10:41.777Z,18.40
2018-10-21T14:13:10.735Z,18.50
2018-10-21T14:15:40.305Z,21.60
2018-10-21T14:18:09.193Z,15.47
2018-10-21T14:20:38.777Z,17.35
2018-10-21T14:23:07.727Z,17.67
2018-10-21T14:25:36.698Z,25.52
2018-10-21T14:28:05.929Z,19.02
2018-10-21T14:30:34.917Z,19.20
2018-10-21T14:33:03.816Z,18.50
2018-10-21T14:35:32.797Z,17.52
2018-10-21T14:38:01.820Z,22.80
2018-10-21T14:40:30.669Z,21.48
2018-10-21T14:42:59.797Z,18.77
2018-10-21T14:45:28.768Z,21.23
2018-10-21T14:47:57.694Z,19.55
2018-10-21T14:50:26.565Z,17.65
2018-10-21T14:52:55.554Z,23.47
2018-10-21T14:55:24.505Z,19.00
2018-10-21T14:57:53.436Z,18.80
2018-10-21T15:00:22.451Z,18.32
2018-10-21T15:02:51.301Z,17.02
2018-10-21T15:05:20.569Z,15.43
2018-10-21T15:07:49.502Z,17.37
2018-10-21T15:10:18.521Z,20.50
2018-10-21T15:12:47.745Z,23.32
2018-10-21T15:15:16.669Z,20.90
2018-10-21T15:17:45.665Z,16.37
2018-10-21T15:20:14.674Z,17.92
2018-10-21T15:22:43.538Z,18.85
2018-10-21T15:25:12.940Z,22.07
2018-10-21T15:27:42.543Z,20.90
2018-10-21T15:30:12.664Z,17.20
2018-10-21T15:32:41.856Z,16.35
2018-10-21T15:35:10.913Z,17.17
2018-10-21T15:37:39.881Z,23.33
2018-10-21T15:40:09.764Z,19.33
2018-10-21T15:42:38.740Z,21.10
2018-10-21T15:45:09.682Z,16.17
2018-10-21T15:47:39.098Z,20.50
2018-10-21T15:50:08.697Z,19.87
2018-10-21T15:52:37.513Z,21.80
2018-10-21T15:55:07.438Z,20.57
2018-10-21T15:57:36.398Z,19.85
2018-10-21T16:00:07.464Z,20.95
2018-10-21T16:02:37.219Z,18.12
2018-10-21T16:05:07.974Z,21.60
2018-10-21T16:07:36.917Z,21.90
2018-10-21T16:10:07.040Z,23.75
2018-10-21T16:12:36.362Z,23.40
2018-10-21T16:15:09.510Z,21.05
2018-10-21T16:17:38.590Z,20.37
2018-10-21T16:20:08.131Z,17.50
2018-10-21T16:22:38.675Z,27.17
2018-10-21T16:25:10.750Z,53.97
2018-10-21T16:27:40.421Z,77.10
2018-10-21T16:30:11.536Z,28.32
2018-10-21T16:32:41.268Z,22.60
2018-10-21T16:35:10.870Z,24.40
2018-10-21T16:37:40.478Z,24.50
2018-10-21T16:40:12.100Z,28.55
2018-10-21T16:42:41.411Z,32.00
2018-10-21T16:45:11.732Z,31.62
2018-10-21T16:47:40.900Z,30.62
2018-10-21T16:50:12.971Z,31.87
2018-10-21T16:52:42.987Z,27.07
2018-10-21T16:55:12.686Z,25.10
2018-10-21T16:57:41.925Z,24.70
2018-10-21T17:00:13.834Z,32.77
2018-10-21T17:02:43.145Z,24.87
2018-10-21T17:05:12.412Z,29.98
2018-10-21T17:07:41.313Z,28.15
2018-10-21T17:10:11.392Z,24.40
2018-10-21T17:12:40.085Z,23.00
2018-10-21T17:15:10.464Z,24.23
2018-10-21T17:17:40.519Z,23.80
2018-10-21T17:20:11.400Z,23.35
2018-10-21T17:22:42.205Z,22.40
2018-10-21T17:25:11.353Z,20.40
2018-10-21T17:27:40.869Z,26.02
2018-10-21T17:30:11.946Z,21.87
2018-10-21T17:32:41.142Z,28.15
2018-10-21T17:35:10.959Z,24.20
2018-10-21T17:37:40.260Z,26.20
2018-10-21T17:40:10.293Z,24.52
2018-10-21T17:42:39.495Z,20.93
2018-10-21T17:45:10.614Z,21.87
2018-10-21T17:47:39.698Z,28.65
2018-10-21T17:50:10.034Z,25.48
2018-10-21T17:52:39.390Z,29.77
2018-10-21T17:55:08.604Z,26.13
2018-10-21T17:57:37.634Z,31.20
2018-10-21T18:00:08.626Z,32.80
2018-10-21T18:02:37.688Z,27.40
2018-10-21T18:05:08.869Z,29.00
2018-10-21T18:07:38.122Z,26.52
2018-10-21T18:10:07.365Z,29.17
2018-10-21T18:12:36.727Z,32.53
2018-10-21T18:15:06.834Z,29.42
2018-10-21T18:17:35.815Z,30.07
2018-10-21T18:20:05.212Z,32.10
2018-10-21T18:22:34.244Z,30.80
2018-10-21T18:25:03.243Z,30.02
2018-10-21T18:27:32.725Z,26.95
2018-10-21T18:30:01.794Z,32.13
2018-10-21T18:32:30.805Z,32.57
2018-10-21T18:35:00.014Z,31.77
2018-10-21T18:37:29.008Z,34.70
2018-10-21T18:39:57.929Z,39.40
2018-10-21T18:42:26.893Z,43.50
2018-10-21T18:44:55.813Z,45.80
2018-10-21T18:47:25.082Z,40.76
2018-10-21T18:49:54.026Z,41.73
2018-10-21T18:52:22.977Z,38.70
2018-10-21T18:54:51.907Z,46.40
2018-10-21T18:57:20.878Z,38.77
2018-10-21T18:59:50.294Z,43.58
2018-10-21T19:02:19.297Z,34.63
2018-10-21T19:04:48.249Z,33.90
2018-10-21T19:07:17.267Z,34.50
2018-10-21T19:09:46.126Z,35.13
2018-10-21T19:12:15.077Z,34.45
2018-10-21T19:14:44.146Z,38.13
2018-10-21T19:17:13.093Z,34.63
2018-10-21T19:19:42.033Z,36.77
2018-10-21T19:22:11.112Z,35.20
2018-10-21T19:24:39.986Z,39.45
2018-10-21T19:27:08.947Z,39.80
2018-10-21T19:29:37.897Z,37.28
2018-10-21T19:32:06.882Z,31.42
2018-10-21T19:34:36.593Z,33.80
2018-10-21T19:37:06.262Z,30.03
2018-10-21T19:39:35.378Z,30.17
2018-10-21T19:42:04.317Z,29.30
2018-10-21T19:44:33.296Z,28.73
2018-10-21T19:47:02.206Z,31.87
2018-10-21T19:49:31.199Z,30.73
2018-10-21T19:52:00.177Z,32.53
2018-10-21T19:54:29.044Z,30.77
2018-10-21T19:56:57.977Z,29.92
2018-10-21T19:59:26.915Z,28.13
2018-10-21T20:01:55.841Z,26.17
2018-10-21T20:04:24.780Z,23.77
2018-10-21T20:06:53.814Z,25.93
2018-10-21T20:09:22.637Z,27.07
2018-10-21T20:11:51.594Z,27.70
2018-10-21T20:14:20.528Z,27.77
2018-10-21T20:16:49.423Z,28.45
2018-10-21T20:19:18.447Z,25.23
2018-10-21T20:21:47.358Z,27.50
2018-10-21T20:24:17.239Z,32.55
2018-10-21T20:26:47.205Z,34.83
2018-10-21T20:29:16.149Z,31.80
2018-10-21T20:31:45.085Z,30.23
2018-10-21T20:34:14.035Z,27.17
2018-10-21T20:36:42.942Z,25.75
2018-10-21T20:39:11.925Z,30.65
2018-10-21T20:41:40.827Z,24.97
2018-10-21T20:44:09.749Z,27.95
2018-10-21T20:46:38.681Z,25.20
2018-10-21T20:49:07.590Z,24.70
2018-10-21T20:51:36.625Z,27.00
2018-10-21T20:54:05.885Z,23.55
2018-10-21T20:56:34.718Z,25.32
2018-10-21T20:59:03.629Z,21.77
2018-10-21T21:01:32.573Z,23.32
2018-10-21T21:04:01.514Z,22.90
2018-10-21T21:06:30.445Z,24.07
2018-10-21T21:09:00.409Z,25.57
2018-10-21T21:11:29.546Z,26.57
2018-10-21T21:13:58.448Z,23.20
2018-10-21T21:16:27.377Z,25.15
2018-10-21T21:18:56.313Z,26.62
2018-10-21T21:21:25.228Z,28.90
2018-10-21T21:23:54.196Z,25.45
2018-10-21T21:26:23.094Z,26.13
2018-10-21T21:28:52.010Z,25.33
2018-10-21T21:31:20.964Z,27.82
2018-10-21T21:33:49.884Z,26.77
2018-10-21T21:36:18.915Z,24.60
2018-10-21T21:38:48.587Z,24.15
2018-10-21T21:41:17.549Z,27.55
2018-10-21T21:43:46.465Z,25.77
2018-10-21T21:46:15.468Z,25.13
2018-10-21T21:48:44.331Z,24.30
2018-10-21T21:51:13.813Z,25.32
2018-10-21T21:53:42.705Z,23.93
2018-10-21T21:56:11.633Z,26.90
2018-10-21T21:58:40.545Z,25.25
2018-10-21T22:01:09.490Z,22.65
2018-10-21T22:03:38.397Z,26.35
2018-10-21T22:06:07.318Z,27.00
2018-10-21T22:08:36.229Z,21.20
2018-10-21T22:11:05.320Z,21.68
2018-10-21T22:13:35.153Z,19.03
2018-10-21T22:16:05.277Z,18.23
2018-10-21T22:18:34.232Z,15.55
2018-10-21T22:21:03.149Z,16.52
2018-10-21T22:23:32.097Z,16.67
2018-10-21T22:26:01.036Z,19.37
2018-10-21T22:28:29.984Z,19.67
2018-10-21T22:30:58.889Z,19.87
2018-10-21T22:33:27.829Z,20.15
2018-10-21T22:35:56.767Z,26.65
2018-10-21T22:38:25.698Z,23.32
2018-10-21T22:40:54.634Z,24.90
2018-10-21T22:43:23.561Z,26.87
2018-10-21T22:45:52.465Z,25.40
2018-10-21T22:48:21.402Z,29.50
2018-10-21T22:50:50.304Z,29.50
2018-10-21T22:53:19.241Z,26.48
2018-10-21T22:55:48.144Z,27.20
2018-10-21T22:58:17.199Z,26.80
2018-10-21T23:00:46.001Z,24.20
2018-10-21T23:03:14.961Z,22.13
2018-10-21T23:05:43.865Z,25.53
2018-10-21T23:08:12.789Z,25.68
2018-10-21T23:10:41.706Z,25.47
2018-10-21T23:13:10.625Z,26.30
2018-10-21T23:15:39.538Z,32.33
2018-10-21T23:18:08.542Z,33.88
2018-10-21T23:20:37.402Z,28.27
2018-10-21T23:23:06.365Z,27.57
2018-10-21T23:25:35.862Z,31.50
2018-10-21T23:28:04.856Z,31.50
2018-10-21T23:30:33.718Z,30.03
2018-10-21T23:33:02.642Z,26.62
2018-10-21T23:35:31.565Z,32.33
2018-10-21T23:38:00.494Z,29.87
2018-10-21T23:40:29.401Z,29.80
2018-10-21T23:42:58.313Z,28.45
2018-10-21T23:45:27.233Z,28.63
2018-10-21T23:47:56.153Z,28.65
2018-10-21T23:50:25.069Z,28.00
2018-10-21T23:52:53.973Z,30.10
2018-10-21T23:55:22.929Z,27.77
2018-10-21T23:57:51.854Z,25.20
